createdAt,value
2023-02-28T00:00:40.830Z,10.07
2023-02-28T00:03:13.125Z,5.10
2023-02-28T00:05:42.896Z,6.00
2023-02-28T00:08:14.216Z,5.10
2023-02-28T00:10:43.929Z,9.60
2023-02-28T00:13:14.327Z,7.93
2023-02-28T00:15:44.028Z,6.27
2023-02-28T00:18:16.283Z,9.30
2023-02-28T00:20:46.012Z,5.97
2023-02-28T00:23:15.664Z,7.60
2023-02-28T00:25:45.406Z,6.07
2023-02-28T00:28:15.076Z,7.50
2023-02-28T00:30:44.739Z,6.23
2023-02-28T00:33:17.077Z,5.83
2023-02-28T00:35:47.519Z,6.43
2023-02-28T00:38:17.577Z,6.78
2023-02-28T00:40:47.734Z,10.23
2023-02-28T00:43:17.417Z,4.30
2023-02-28T00:45:48.280Z,6.00
2023-02-28T00:48:20.587Z,4.70
2023-02-28T00:50:52.340Z,4.93
2023-02-28T00:53:22.006Z,6.75
2023-02-28T00:55:52.595Z,4.93
2023-02-28T00:58:22.313Z,5.65
2023-02-28T01:00:52.369Z,7.20
2023-02-28T01:03:26.203Z,4.90
2023-02-28T01:05:56.974Z,8.13
2023-02-28T01:08:27.126Z,5.97
2023-02-28T01:10:56.970Z,7.00
2023-02-28T01:13:27.289Z,5.72
2023-02-28T01:15:59.359Z,4.97
2023-02-28T01:18:32.443Z,6.40
2023-02-28T01:21:02.210Z,5.82
2023-02-28T01:23:31.850Z,8.18
2023-02-28T01:26:01.598Z,5.75
2023-02-28T01:28:31.475Z,6.82
2023-02-28T01:31:01.398Z,7.00
2023-02-28T01:33:34.124Z,7.43
2023-02-28T01:36:04.167Z,6.28
2023-02-28T01:38:34.280Z,7.63
2023-02-28T01:41:04.169Z,8.35
2023-02-28T01:43:36.040Z,6.45
2023-02-28T01:46:05.815Z,8.63
2023-02-28T01:48:41.949Z,6.23
2023-02-28T01:51:16.791Z,7.83
2023-02-28T01:53:49.772Z,8.73
2023-02-28T01:56:24.129Z,6.90
2023-02-28T01:58:54.830Z,8.98
2023-02-28T02:01:29.865Z,7.85
2023-02-28T02:04:06.200Z,9.98
2023-02-28T02:06:42.033Z,13.33
2023-02-28T02:09:13.637Z,12.32
2023-02-28T02:11:45.939Z,11.80
2023-02-28T02:14:45.423Z,10.13
2023-02-28T02:17:25.215Z,15.73
2023-02-28T02:20:22.891Z,12.50
2023-02-28T02:23:13.301Z,14.53
2023-02-28T02:25:47.333Z,12.65
2023-02-28T02:28:48.221Z,20.20
2023-02-28T02:31:32.615Z,10.20
2023-02-28T02:34:31.980Z,10.98
2023-02-28T02:37:11.753Z,9.60
2023-02-28T02:39:49.362Z,12.27
2023-02-28T02:42:25.751Z,8.40
2023-02-28T02:45:02.003Z,10.10
2023-02-28T02:47:34.933Z,11.02
2023-02-28T02:50:12.561Z,11.80
2023-02-28T02:52:47.159Z,13.57
2023-02-28T02:55:18.571Z,17.60
2023-02-28T02:57:52.505Z,9.00
2023-02-28T03:00:27.349Z,13.05
2023-02-28T03:02:59.792Z,10.82
2023-02-28T03:05:37.953Z,10.65
2023-02-28T03:08:08.149Z,12.18
2023-02-28T03:10:40.683Z,10.20
2023-02-28T03:13:46.489Z,11.40
2023-02-28T03:16:32.453Z,7.53
2023-02-28T03:19:10.714Z,13.60
2023-02-28T03:21:48.025Z,7.15
2023-02-28T03:24:26.330Z,11.10
2023-02-28T03:27:02.596Z,13.00
2023-02-28T03:29:38.648Z,10.68
2023-02-28T03:32:18.414Z,10.63
2023-02-28T03:34:54.690Z,11.82
2023-02-28T03:37:30.762Z,12.60
2023-02-28T03:40:07.439Z,10.18
2023-02-28T03:42:40.517Z,10.07
2023-02-28T03:45:17.264Z,9.32
2023-02-28T03:47:53.088Z,11.30
2023-02-28T03:50:26.673Z,10.30
2023-02-28T03:53:05.962Z,9.57
2023-02-28T03:55:42.286Z,12.02
2023-02-28T03:58:19.654Z,7.55
2023-02-28T04:00:53.133Z,8.70
2023-02-28T04:03:22.785Z,9.93
2023-02-28T04:05:55.789Z,10.55
2023-02-28T04:08:28.099Z,7.10
2023-02-28T04:11:04.449Z,7.05
2023-02-28T04:13:34.159Z,8.57
2023-02-28T04:16:18.719Z,8.65
2023-02-28T04:18:51.377Z,9.18
2023-02-28T04:21:23.297Z,7.32
2023-02-28T04:23:55.550Z,8.70
2023-02-28T04:26:25.312Z,10.63
2023-02-28T04:28:54.979Z,8.65
2023-02-28T04:31:24.726Z,9.80
2023-02-28T04:33:54.496Z,8.50
2023-02-28T04:36:24.359Z,10.70
2023-02-28T04:38:56.844Z,9.38
2023-02-28T04:41:28.932Z,7.80
2023-02-28T04:43:59.923Z,6.93
2023-02-28T04:46:29.538Z,9.95
2023-02-28T04:48:59.225Z,9.40
2023-02-28T04:51:29.120Z,9.10
2023-02-28T04:54:01.730Z,8.40
2023-02-28T04:56:31.371Z,7.82
2023-02-28T04:59:01.288Z,8.70
2023-02-28T05:01:33.558Z,9.25
2023-02-28T05:04:05.621Z,12.20
2023-02-28T05:06:36.981Z,11.98
2023-02-28T05:09:09.363Z,7.97
2023-02-28T05:11:40.169Z,8.90
2023-02-28T05:14:15.059Z,9.80
2023-02-28T05:16:45.369Z,7.82
2023-02-28T05:19:15.079Z,12.02
2023-02-28T05:21:52.114Z,9.35
2023-02-28T05:24:26.370Z,10.38
2023-02-28T05:26:57.417Z,10.30
2023-02-28T05:29:27.120Z,11.27
2023-02-28T05:31:56.929Z,11.18
2023-02-28T05:34:26.725Z,9.48
2023-02-28T05:36:56.430Z,7.38
2023-02-28T05:39:28.709Z,11.35
2023-02-28T05:41:58.408Z,9.30
2023-02-28T05:44:28.374Z,10.05
2023-02-28T05:46:58.149Z,10.57
2023-02-28T05:49:27.926Z,7.07
2023-02-28T05:51:57.733Z,8.00
2023-02-28T05:54:30.022Z,9.40
2023-02-28T05:56:59.744Z,8.48
2023-02-28T05:59:29.459Z,11.93
2023-02-28T06:01:59.256Z,9.10
2023-02-28T06:04:32.142Z,9.40
2023-02-28T06:07:02.796Z,9.90
2023-02-28T06:09:35.116Z,8.15
2023-02-28T06:12:08.234Z,8.77
2023-02-28T06:14:38.532Z,9.07
2023-02-28T06:17:08.277Z,7.85
2023-02-28T06:19:39.764Z,8.98
2023-02-28T06:22:09.437Z,7.97
2023-02-28T06:24:41.673Z,6.78
2023-02-28T06:27:11.418Z,6.32
2023-02-28T06:29:44.035Z,8.23
2023-02-28T06:32:13.767Z,9.95
2023-02-28T06:34:43.544Z,7.60
2023-02-28T06:37:13.161Z,10.93
2023-02-28T06:39:45.615Z,11.50
2023-02-28T06:42:15.346Z,7.72
2023-02-28T06:44:45.033Z,7.25
2023-02-28T06:47:14.757Z,7.53
2023-02-28T06:49:46.228Z,7.47
2023-02-28T06:52:16.020Z,8.00
2023-02-28T06:54:48.319Z,10.65
2023-02-28T06:57:18.077Z,9.82
2023-02-28T06:59:47.703Z,9.52
2023-02-28T07:02:17.317Z,9.82
2023-02-28T07:04:47.376Z,10.65
2023-02-28T07:07:17.034Z,9.45
2023-02-28T07:09:49.343Z,10.45
2023-02-28T07:12:19.146Z,10.88
2023-02-28T07:14:48.817Z,11.02
2023-02-28T07:17:18.548Z,8.43
2023-02-28T07:19:50.428Z,9.27
2023-02-28T07:22:20.141Z,8.07
2023-02-28T07:24:52.789Z,12.93
2023-02-28T07:27:27.249Z,11.35
2023-02-28T07:29:57.346Z,12.10
2023-02-28T07:32:27.187Z,15.55
2023-02-28T07:34:57.017Z,14.82
2023-02-28T07:37:26.661Z,11.98
2023-02-28T07:39:58.958Z,13.48
2023-02-28T07:42:28.661Z,15.50
2023-02-28T07:45:03.842Z,11.82
2023-02-28T07:47:34.311Z,11.73
2023-02-28T07:50:08.863Z,13.23
2023-02-28T07:52:39.628Z,11.15
2023-02-28T07:55:14.710Z,13.50
2023-02-28T07:57:44.764Z,9.98
2023-02-28T08:00:16.289Z,8.30
2023-02-28T08:02:46.115Z,12.82
2023-02-28T08:05:21.470Z,18.13
2023-02-28T08:07:54.399Z,13.50
2023-02-28T08:10:27.104Z,13.95
2023-02-28T08:12:56.829Z,11.15
2023-02-28T08:15:26.540Z,9.95
2023-02-28T08:17:57.302Z,12.95
2023-02-28T08:20:27.392Z,10.98
2023-02-28T08:22:57.242Z,14.77
2023-02-28T08:25:29.615Z,11.73
2023-02-28T08:27:59.435Z,13.25
2023-02-28T08:30:31.796Z,11.10
2023-02-28T08:33:02.863Z,9.13
2023-02-28T08:35:32.643Z,6.30
2023-02-28T08:38:02.364Z,6.72
2023-02-28T08:40:34.656Z,7.00
2023-02-28T08:43:04.398Z,6.95
2023-02-28T08:45:34.359Z,8.60
2023-02-28T08:48:04.090Z,4.47
2023-02-28T08:50:33.740Z,5.97
2023-02-28T08:53:03.593Z,5.70
2023-02-28T08:55:35.956Z,6.85
2023-02-28T08:58:05.656Z,8.60
2023-02-28T09:00:38.407Z,7.07
2023-02-28T09:03:10.670Z,9.10
2023-02-28T09:05:40.359Z,8.93
2023-02-28T09:08:10.117Z,7.00
2023-02-28T09:10:42.415Z,6.97
2023-02-28T09:13:12.100Z,7.57
2023-02-28T09:15:41.867Z,6.88
2023-02-28T09:18:11.802Z,9.52
2023-02-28T09:20:42.587Z,5.90
2023-02-28T09:23:13.145Z,6.00
2023-02-28T09:25:50.184Z,6.75
2023-02-28T09:28:20.116Z,4.88
2023-02-28T09:30:51.786Z,6.70
2023-02-28T09:33:22.744Z,5.55
2023-02-28T09:35:53.343Z,10.13
2023-02-28T09:38:23.119Z,4.17
2023-02-28T09:40:58.103Z,5.60
2023-02-28T09:43:30.737Z,5.13
2023-02-28T09:46:06.694Z,7.20
2023-02-28T09:48:41.325Z,7.63
2023-02-28T09:51:31.983Z,6.53
2023-02-28T09:54:02.475Z,5.67
2023-02-28T09:56:39.787Z,5.00
2023-02-28T09:59:17.875Z,5.27
2023-02-28T10:01:56.990Z,6.15
2023-02-28T10:04:42.691Z,6.00
2023-02-28T10:07:26.422Z,9.27
2023-02-28T10:10:01.478Z,5.87
2023-02-28T10:12:35.798Z,3.70
2023-02-28T10:15:07.694Z,4.93
2023-02-28T10:17:55.627Z,4.60
2023-02-28T10:20:35.814Z,7.67
2023-02-28T10:23:13.566Z,5.63
2023-02-28T10:25:50.596Z,7.47
2023-02-28T10:28:26.857Z,6.97
2023-02-28T10:31:01.430Z,3.23
2023-02-28T10:33:35.801Z,4.57
2023-02-28T10:36:12.669Z,3.90
2023-02-28T10:38:57.977Z,4.50
2023-02-28T10:41:39.436Z,6.90
2023-02-28T10:44:25.571Z,3.70
2023-02-28T10:46:55.702Z,7.10
2023-02-28T10:49:28.081Z,6.50
2023-02-28T10:52:00.045Z,4.80
2023-02-28T10:54:38.893Z,4.53
2023-02-28T10:57:18.839Z,6.83
2023-02-28T10:59:56.118Z,5.13
2023-02-28T11:02:35.290Z,5.03
2023-02-28T11:05:08.354Z,3.23
2023-02-28T11:08:16.666Z,8.17
2023-02-28T11:10:51.057Z,5.53
2023-02-28T11:13:23.991Z,5.23
2023-02-28T11:15:59.141Z,10.33
2023-02-28T11:18:33.153Z,6.60
2023-02-28T11:21:05.768Z,3.80
2023-02-28T11:23:40.840Z,6.07
2023-02-28T11:26:12.387Z,4.40
2023-02-28T11:28:44.229Z,5.43
2023-02-28T11:31:23.574Z,5.53
2023-02-28T11:33:56.814Z,5.43
2023-02-28T11:36:28.595Z,9.73
2023-02-28T11:39:02.691Z,4.67
2023-02-28T11:41:46.760Z,5.60
2023-02-28T11:44:28.716Z,4.70
2023-02-28T11:47:07.898Z,5.20
2023-02-28T11:49:47.823Z,7.43
2023-02-28T11:52:25.050Z,5.97
2023-02-28T11:55:12.588Z,5.20
2023-02-28T11:58:12.263Z,5.63
2023-02-28T12:00:51.423Z,3.03
2023-02-28T12:03:52.981Z,5.07
2023-02-28T12:06:30.723Z,3.20
2023-02-28T12:09:08.283Z,2.50
2023-02-28T12:11:49.377Z,6.07
2023-02-28T12:14:33.409Z,3.13
2023-02-28T12:17:09.326Z,2.13
2023-02-28T12:19:52.448Z,4.60
2023-02-28T12:22:43.306Z,5.30
2023-02-28T12:25:44.617Z,3.23
2023-02-28T12:28:18.280Z,3.27
2023-02-28T12:30:56.929Z,5.07
2023-02-28T12:33:31.953Z,4.87
2023-02-28T12:36:12.140Z,2.90
2023-02-28T12:38:47.819Z,3.67
2023-02-28T12:41:23.089Z,3.60
2023-02-28T12:43:59.953Z,4.20
2023-02-28T12:46:36.487Z,2.80
2023-02-28T22:07:02.800Z,10.55
